| time (UTC) | temp F | wind direction | speed knots | gust knots | rain 1hr in | rain 24hr in | rain mn in | humidity % | barometer mb |
| 20260509201529 | 80 | 239 | 0.0 | 0.0 | 0.00 | 0.00 | 0.00 | 60 | 1022.9 |
| 20260509201027 | 80 | 240 | 0.0 | 1.7 | 0.00 | 0.00 | 0.00 | 59 | 1022.6 |
| 20260509200521 | 81 | 235 | 0.0 | 0.0 | 0.00 | 0.00 | 0.00 | 58 | 1022.5 |
| 20260509200019 | 81 | 246 | 0.0 | 0.9 | 0.00 | 0.00 | 0.00 | 58 | 1022.6 |
| 20260509195514 | 81 | 238 | 0.9 | 4.3 | 0.00 | 0.00 | 0.00 | 58 | 1022.6 |
| 20260509195014 | 81 | 241 | 0.0 | 0.9 | 0.00 | 0.00 | 0.00 | 58 | 1022.4 |
| 20260509194509 | 81 | 227 | 0.9 | 1.7 | 0.00 | 0.00 | 0.00 | 57 | 1022.4 |
| 20260509194007 | 82 | 239 | 0.0 | 0.0 | 0.00 | 0.00 | 0.00 | 57 | 1022.4 |
| 20260509193507 | 82 | 241 | 0.9 | 2.6 | 0.00 | 0.00 | 0.00 | 56 | 1022.3 |
| 20260509193004 | 82 | 232 | 0.9 | 1.7 | 0.00 | 0.00 | 0.00 | 56 | 1022.2 |
| 20260509192500 | 82 | 239 | 0.0 | 0.9 | 0.00 | 0.00 | 0.00 | 56 | 1022.3 |
| 20260509191955 | 82 | 239 | 0.0 | 1.7 | 0.00 | 0.00 | 0.00 | 56 | 1022.2 |
| 20260509191450 | 82 | 240 | 0.9 | 1.7 | 0.00 | 0.00 | 0.00 | 55 | 1022.2 |
| 20260509190946 | 82 | 240 | 0.9 | 1.7 | 0.00 | 0.00 | 0.00 | 56 | 1022.1 |
| 20260509190444 | 82 | 227 | 1.7 | 1.7 | 0.00 | 0.00 | 0.00 | 55 | 1022.1 |
| 20260509185941 | 82 | 241 | 0.9 | 4.3 | 0.00 | 0.00 | 0.00 | 55 | 1022.2 |
| 20260509185438 | 82 | 238 | 2.6 | 5.2 | 0.00 | 0.00 | 0.00 | 56 | 1022.1 |
| 20260509184934 | 82 | 246 | 0.9 | 0.9 | 0.00 | 0.00 | 0.00 | 57 | 1022.2 |
| 20260509184432 | 82 | 224 | 0.9 | 1.7 | 0.00 | 0.00 | 0.00 | 57 | 1022.2 |
| 20260509183928 | 82 | 235 | 0.0 | 1.7 | 0.00 | 0.00 | 0.00 | 57 | 1022.2 |
| 20260509183423 | 83 | 228 | 0.0 | 0.0 | 0.00 | 0.00 | 0.00 | 57 | 1022.3 |
| 20260509182920 | 83 | 235 | 0.9 | 4.3 | 0.00 | 0.00 | 0.00 | 57 | 1022.1 |
| 20260509182416 | 83 | 230 | 0.9 | 0.9 | 0.00 | 0.00 | 0.00 | 57 | 1022.2 |
| 20260509181914 | 83 | 241 | 0.9 | 2.6 | 0.00 | 0.00 | 0.00 | 57 | 1022.2 |
| 20260509181412 | 83 | 238 | 0.0 | 4.3 | 0.00 | 0.00 | 0.00 | 57 | 1022.5 |
| 20260509180908 | 83 | 249 | 0.9 | 1.7 | 0.00 | 0.00 | 0.00 | 57 | 1022.4 |
| 20260509180403 | 84 | 244 | 1.7 | 2.6 | 0.00 | 0.00 | 0.00 | 56 | 1022.5 |
| 20260509175901 | 84 | 248 | 0.9 | 1.7 | 0.00 | 0.00 | 0.00 | 56 | 1022.4 |
| 20260509175357 | 84 | 236 | 0.9 | 1.7 | 0.00 | 0.00 | 0.00 | 57 | 1022.3 |
| 20260509174853 | 83 | 242 | 0.0 | 0.9 | 0.00 | 0.00 | 0.00 | 57 | 1022.4 |
| 20260509174349 | 82 | 232 | 0.0 | 1.7 | 0.00 | 0.00 | 0.00 | 58 | 1022.5 |
| 20260509173845 | 83 | 240 | 1.7 | 2.6 | 0.00 | 0.00 | 0.00 | 57 | 1022.5 |
| 20260509173340 | 83 | 232 | 0.0 | 0.9 | 0.00 | 0.00 | 0.00 | 57 | 1022.7 |
| 20260509172837 | 82 | 242 | 0.0 | 0.9 | 0.00 | 0.00 | 0.00 | 58 | 1022.5 |
| 20260509172334 | 83 | 236 | 0.0 | 1.7 | 0.00 | 0.00 | 0.00 | 57 | 1022.6 |
| 20260509171830 | 83 | 237 | 0.0 | 0.9 | 0.00 | 0.00 | 0.00 | 57 | 1022.7 |
| 20260509171325 | 82 | 236 | 0.9 | 0.9 | 0.00 | 0.00 | 0.00 | 57 | 1022.7 |
| 20260509170822 | 82 | 237 | 0.9 | 1.7 | 0.00 | 0.00 | 0.00 | 58 | 1022.7 |
| 20260509170318 | 82 | 241 | 0.9 | 0.9 | 0.00 | 0.00 | 0.00 | 57 | 1022.7 |
| 20260509165818 | 83 | 208 | 1.7 | 4.3 | 0.00 | 0.00 | 0.00 | 57 | 1022.7 |
| 20260509165313 | 83 | 237 | 1.7 | 1.7 | 0.00 | 0.00 | 0.00 | 56 | 1022.9 |
| 20260509164809 | 82 | 239 | 0.9 | 0.9 | 0.00 | 0.00 | 0.00 | 57 | 1022.8 |
| 20260509164305 | 83 | 242 | 0.0 | 1.7 | 0.00 | 0.00 | 0.00 | 56 | 1023.0 |
| 20260509163802 | 83 | 240 | 1.7 | 2.6 | 0.00 | 0.00 | 0.00 | 55 | 1022.9 |
| 20260509163258 | 83 | 242 | 0.9 | 1.7 | 0.00 | 0.00 | 0.00 | 55 | 1022.8 |
| 20260509162757 | 83 | 235 | 1.7 | 2.6 | 0.00 | 0.00 | 0.00 | 56 | 1023.0 |
| 20260509162251 | 83 | 238 | 0.9 | 1.7 | 0.00 | 0.00 | 0.00 | 56 | 1023.0 |
| 20260509161747 | 83 | 240 | 0.9 | 1.7 | 0.00 | 0.00 | 0.00 | 56 | 1023.0 |
| 20260509161243 | 82 | 238 | 0.0 | 0.9 | 0.00 | 0.00 | 0.00 | 57 | 1023.0 |
| 20260509160738 | 82 | 237 | 0.9 | 2.6 | 0.00 | 0.00 | 0.00 | 57 | 1023.2 |
| 20260509160235 | 82 | 239 | 1.7 | 5.2 | 0.00 | 0.00 | 0.00 | 57 | 1023.2 |
| 20260509155730 | 83 | 226 | 1.7 | 2.6 | 0.00 | 0.00 | 0.00 | 56 | 1023.2 |
| 20260509155227 | 83 | 240 | 0.9 | 2.6 | 0.00 | 0.00 | 0.00 | 56 | 1023.2 |
| 20260509154723 | 83 | 235 | 0.9 | 0.9 | 0.00 | 0.00 | 0.00 | 56 | 1023.1 |
| 20260509154220 | 83 | 241 | 0.9 | 1.7 | 0.00 | 0.00 | 0.00 | 56 | 1023.2 |
| 20260509153717 | 84 | 237 | 1.7 | 1.7 | 0.00 | 0.00 | 0.00 | 55 | 1023.6 |
| 20260509153213 | 86 | 243 | 0.0 | 1.7 | 0.00 | 0.00 | 0.00 | 53 | 1023.2 |
| 20260509152709 | 85 | 234 | 0.0 | 0.9 | 0.00 | 0.00 | 0.00 | 53 | 1023.5 |
| 20260509152207 | 84 | 236 | 0.0 | 1.7 | 0.00 | 0.00 | 0.00 | 55 | 1023.2 |
| 20260509151704 | 83 | 235 | 0.0 | 1.7 | 0.00 | 0.00 | 0.00 | 57 | 1023.5 |
| 20260509151201 | 83 | 241 | 0.0 | 0.9 | 0.00 | 0.00 | 0.00 | 58 | 1023.7 |
| 20260509150658 | 83 | 230 | 0.9 | 1.7 | 0.00 | 0.00 | 0.00 | 57 | 1023.8 |
| 20260509150156 | 83 | 239 | 0.0 | 0.9 | 0.00 | 0.00 | 0.00 | 57 | 1023.8 |
| 20260509145652 | 83 | 235 | 0.0 | 0.0 | 0.00 | 0.00 | 0.00 | 58 | 1023.9 |
| 20260509145147 | 82 | 239 | 0.0 | 0.9 | 0.00 | 0.00 | 0.00 | 58 | 1024.1 |
| 20260509144644 | 82 | 266 | 0.9 | 1.7 | 0.00 | 0.00 | 0.00 | 59 | 1024.3 |
| 20260509144142 | 82 | 239 | 0.9 | 0.9 | 0.00 | 0.00 | 0.00 | 59 | 1024.3 |
| 20260509143638 | 82 | 240 | 1.7 | 2.6 | 0.00 | 0.00 | 0.00 | 59 | 1024.4 |
| 20260509143136 | 82 | 240 | 1.7 | 1.7 | 0.00 | 0.00 | 0.00 | 59 | 1024.4 |
| 20260509142631 | 82 | 253 | 2.6 | 5.2 | 0.00 | 0.00 | 0.00 | 58 | 1024.5 |
| 20260509142128 | 83 | 238 | 0.9 | 0.9 | 0.00 | 0.00 | 0.00 | 58 | 1024.5 |
| 20260509141624 | 83 | 234 | 0.0 | 0.9 | 0.00 | 0.00 | 0.00 | 58 | 1024.2 |
| 20260509141120 | 82 | 234 | 0.0 | 0.9 | 0.00 | 0.00 | 0.00 | 59 | 1024.6 |
| 20260509140618 | 80 | 243 | 0.9 | 1.7 | 0.00 | 0.00 | 0.00 | 61 | 1024.4 |
| 20260509140116 | 80 | 235 | 1.7 | 2.6 | 0.00 | 0.00 | 0.00 | 61 | 1024.5 |
| 20260509135612 | 80 | 237 | 0.9 | 0.9 | 0.00 | 0.00 | 0.00 | 62 | 1024.7 |
| 20260509135111 | 80 | 240 | 0.9 | 0.9 | 0.00 | 0.00 | 0.00 | 62 | 1024.5 |
| 20260509134607 | 80 | 238 | 0.9 | 1.7 | 0.00 | 0.00 | 0.00 | 62 | 1024.6 |
| 20260509134104 | 79 | 237 | 0.0 | 0.9 | 0.00 | 0.00 | 0.00 | 63 | 1024.6 |
| 20260509133601 | 78 | 236 | 0.0 | 0.9 | 0.00 | 0.00 | 0.00 | 64 | 1024.7 |
| 20260509133059 | 78 | 236 | 0.0 | 0.9 | 0.00 | 0.00 | 0.00 | 64 | 1024.9 |
| 20260509132557 | 78 | 231 | 0.9 | 0.9 | 0.00 | 0.00 | 0.00 | 64 | 1024.6 |
| 20260509132055 | 77 | 235 | 0.0 | 0.0 | 0.00 | 0.00 | 0.00 | 65 | 1025.0 |
| 20260509131550 | 77 | 235 | 0.0 | 0.9 | 0.00 | 0.00 | 0.00 | 66 | 1025.0 |
| 20260509131048 | 77 | 234 | 0.0 | 0.9 | 0.00 | 0.00 | 0.00 | 65 | 1025.1 |
| 20260509130543 | 77 | 243 | 0.0 | 0.9 | 0.00 | 0.00 | 0.00 | 65 | 1025.0 |
| 20260509130040 | 77 | 241 | 0.0 | 0.9 | 0.00 | 0.00 | 0.00 | 66 | 1025.0 |
| 20260509125537 | 77 | 240 | 0.0 | 0.9 | 0.00 | 0.00 | 0.00 | 66 | 1025.1 |
| 20260509125033 | 76 | 236 | 0.0 | 1.7 | 0.00 | 0.00 | 0.00 | 67 | 1025.1 |
| 20260509124530 | 76 | 241 | 0.9 | 0.9 | 0.00 | 0.00 | 0.00 | 67 | 1024.9 |
| 20260509124027 | 76 | 241 | 0.0 | 1.7 | 0.00 | 0.00 | 0.00 | 67 | 1024.9 |
| 20260509123525 | 76 | 234 | 0.9 | 0.9 | 0.00 | 0.00 | 0.00 | 67 | 1024.6 |
| 20260509123021 | 75 | 239 | 0.9 | 1.7 | 0.00 | 0.00 | 0.00 | 67 | 1024.5 |
| 20260509122518 | 75 | 236 | 0.9 | 0.9 | 0.00 | 0.00 | 0.00 | 68 | 1024.4 |
| 20260509122015 | 75 | 239 | 0.0 | 1.7 | 0.00 | 0.00 | 0.00 | 68 | 1024.4 |
| 20260509121511 | 75 | 239 | 0.0 | 0.9 | 0.00 | 0.00 | 0.00 | 68 | 1024.4 |
| 20260509121009 | 75 | 240 | 0.0 | 0.0 | 0.00 | 0.00 | 0.00 | 68 | 1024.3 |
| 20260509120507 | 75 | 240 | 0.0 | 0.9 | 0.00 | 0.00 | 0.00 | 68 | 1024.3 |
| 20260509120005 | 75 | 239 | 0.0 | 2.6 | 0.00 | 0.00 | 0.00 | 69 | 1024.4 |
| 20260509115502 | 74 | 242 | 0.0 | 0.0 | 0.00 | 0.00 | 0.00 | 69 | 1024.3 |
| 20260509114959 | 75 | 237 | 0.0 | 0.0 | 0.00 | 0.00 | 0.00 | 69 | 1024.2 |
| 20260509114457 | 75 | 241 | 0.0 | 0.0 | 0.00 | 0.00 | 0.00 | 68 | 1024.1 |
| 20260509113957 | 75 | 240 | 0.0 | 0.0 | 0.00 | 0.00 | 0.00 | 68 | 1024.0 |
| 20260509113453 | 75 | 243 | 0.0 | 0.9 | 0.00 | 0.00 | 0.00 | 68 | 1024.1 |
| 20260509112950 | 75 | 237 | 0.0 | 0.9 | 0.00 | 0.00 | 0.00 | 68 | 1024.0 |
| 20260509112448 | 74 | 238 | 0.0 | 0.0 | 0.00 | 0.00 | 0.00 | 69 | 1024.1 |
| 20260509111944 | 74 | 241 | 0.0 | 0.9 | 0.00 | 0.00 | 0.00 | 69 | 1023.9 |
| 20260509111442 | 73 | 240 | 0.0 | 0.9 | 0.00 | 0.00 | 0.00 | 70 | 1023.9 |
| 20260509110939 | 73 | 243 | 0.9 | 1.7 | 0.00 | 0.00 | 0.00 | 71 | 1023.7 |
| 20260509110435 | 73 | 237 | 0.0 | 0.0 | 0.00 | 0.00 | 0.00 | 71 | 1023.3 |
| 20260509105933 | 73 | 240 | 0.9 | 1.7 | 0.00 | 0.00 | 0.00 | 71 | 1023.5 |
| 20260509105431 | 73 | 236 | 0.0 | 0.9 | 0.00 | 0.00 | 0.00 | 72 | 1023.2 |
| 20260509104928 | 72 | 243 | 0.0 | 0.9 | 0.00 | 0.00 | 0.00 | 72 | 1023.0 |
| 20260509104425 | 72 | 237 | 0.0 | 0.0 | 0.00 | 0.00 | 0.00 | 72 | 1022.9 |
| 20260509103922 | 72 | 240 | 0.0 | 0.9 | 0.00 | 0.00 | 0.00 | 73 | 1022.9 |
| 20260509103419 | 71 | 236 | 0.9 | 1.7 | 0.00 | 0.00 | 0.00 | 73 | 1023.0 |
| 20260509102918 | 71 | 244 | 0.9 | 0.9 | 0.00 | 0.00 | 0.00 | 73 | 1023.0 |
| 20260509102415 | 71 | 240 | 0.9 | 1.7 | 0.00 | 0.00 | 0.00 | 73 | 1022.9 |
| 20260509101911 | 71 | 233 | 0.0 | 1.7 | 0.00 | 0.00 | 0.00 | 73 | 1023.0 |
| 20260509101407 | 71 | 238 | 0.9 | 1.7 | 0.00 | 0.00 | 0.00 | 73 | 1022.8 |
| 20260509100905 | 71 | 160 | 0.0 | 0.0 | 0.00 | 0.00 | 0.00 | 73 | 1022.7 |
| 20260509100401 | 71 | 160 | 0.0 | 0.9 | 0.00 | 0.00 | 0.00 | 73 | 1022.5 |
| 20260509095858 | 72 | 159 | 0.9 | 1.7 | 0.00 | 0.00 | 0.00 | 72 | 1022.3 |
| 20260509095356 | 73 | 158 | 0.0 | 0.9 | 0.00 | 0.00 | 0.00 | 71 | 1022.2 |
| 20260509094853 | 73 | 157 | 0.0 | 0.9 | 0.00 | 0.00 | 0.00 | 68 | 1021.8 |
| 20260509094349 | 74 | 157 | 0.0 | 0.0 | 0.00 | 0.00 | 0.00 | 66 | 1021.9 |
| 20260509093847 | 74 | 157 | 0.9 | 2.6 | 0.00 | 0.00 | 0.00 | 65 | 1021.7 |
| 20260509093344 | 74 | 157 | 1.7 | 2.6 | 0.00 | 0.00 | 0.00 | 65 | 1021.4 |
| 20260509092843 | 74 | 157 | 1.7 | 1.7 | 0.00 | 0.00 | 0.00 | 65 | 1021.5 |
| 20260509092340 | 74 | 157 | 0.0 | 4.3 | 0.00 | 0.00 | 0.00 | 66 | 1021.6 |
| 20260509091832 | 74 | 157 | 0.0 | 0.9 | 0.00 | 0.00 | 0.00 | 66 | 1021.4 |
| 20260509091329 | 74 | 157 | 0.0 | 0.0 | 0.00 | 0.00 | 0.00 | 66 | 1021.6 |
| 20260509090826 | 74 | 157 | 0.0 | 0.9 | 0.00 | 0.00 | 0.00 | 66 | 1021.4 |
| 20260509090323 | 74 | 157 | 0.9 | 0.9 | 0.00 | 0.00 | 0.00 | 67 | 1021.2 |
| 20260509085820 | 74 | 157 | 0.0 | 1.7 | 0.00 | 0.00 | 0.00 | 66 | 1021.1 |
| 20260509085318 | 74 | 157 | 0.0 | 0.9 | 0.00 | 0.00 | 0.00 | 67 | 1021.0 |
| 20260509084814 | 74 | 157 | 0.0 | 0.0 | 0.00 | 0.00 | 0.00 | 67 | 1021.0 |
| 20260509084312 | 74 | 157 | 0.9 | 1.7 | 0.00 | 0.00 | 0.00 | 67 | 1021.0 |
| 20260509083809 | 74 | 157 | 0.9 | 0.9 | 0.00 | 0.00 | 0.00 | 67 | 1021.0 |
| 20260509083306 | 74 | 157 | 0.0 | 0.0 | 0.00 | 0.00 | 0.00 | 67 | 1020.8 |
| 20260509082803 | 74 | 158 | 0.0 | 0.0 | 0.00 | 0.00 | 0.00 | 67 | 1020.8 |
| 20260509082259 | 74 | 158 | 0.9 | 1.7 | 0.00 | 0.00 | 0.00 | 66 | 1020.7 |
| 20260509081756 | 74 | 158 | 2.6 | 4.3 | 0.00 | 0.00 | 0.00 | 67 | 1020.8 |
| 20260509081254 | 74 | 158 | 0.0 | 1.7 | 0.00 | 0.00 | 0.00 | 67 | 1020.8 |
| 20260509080752 | 74 | 158 | 0.0 | 0.9 | 0.00 | 0.00 | 0.00 | 68 | 1020.9 |
| 20260509080249 | 74 | 158 | 0.0 | 0.9 | 0.00 | 0.00 | 0.00 | 67 | 1020.9 |
| 20260509075747 | 73 | 158 | 0.0 | 0.0 | 0.00 | 0.00 | 0.00 | 68 | 1020.8 |
| 20260509075244 | 73 | 158 | 0.9 | 0.9 | 0.00 | 0.00 | 0.00 | 69 | 1020.8 |
| 20260509074740 | 73 | 158 | 0.0 | 0.9 | 0.00 | 0.00 | 0.00 | 69 | 1020.9 |
| 20260509074238 | 73 | 158 | 1.7 | 1.7 | 0.00 | 0.00 | 0.00 | 68 | 1020.9 |
| 20260509073734 | 73 | 158 | 0.0 | 0.9 | 0.00 | 0.00 | 0.00 | 68 | 1020.9 |
| 20260509073231 | 73 | 158 | 0.0 | 0.0 | 0.00 | 0.00 | 0.00 | 69 | 1020.9 |
| 20260509072727 | 73 | 158 | 0.0 | 0.0 | 0.00 | 0.00 | 0.00 | 69 | 1020.9 |
| 20260509072224 | 73 | 158 | 0.0 | 0.0 | 0.00 | 0.00 | 0.00 | 69 | 1020.9 |
| 20260509071721 | 72 | 158 | 1.7 | 1.7 | 0.00 | 0.00 | 0.00 | 70 | 1020.9 |
| 20260509071218 | 72 | 158 | 0.0 | 0.0 | 0.00 | 0.00 | 0.00 | 70 | 1020.9 |
| 20260509070715 | 72 | 158 | 0.0 | 0.9 | 0.00 | 0.00 | 0.00 | 70 | 1020.9 |
| 20260509070211 | 73 | 158 | 0.0 | 0.0 | 0.00 | 0.00 | 0.00 | 70 | 1021.1 |
| 20260509065707 | 73 | 158 | 0.0 | 0.0 | 0.00 | 0.00 | 0.00 | 70 | 1020.9 |
| 20260509065203 | 73 | 158 | 0.0 | 0.9 | 0.00 | 0.00 | 0.00 | 69 | 1020.9 |
| 20260509064700 | 73 | 158 | 0.0 | 0.0 | 0.00 | 0.00 | 0.00 | 70 | 1020.9 |
| 20260509064158 | 73 | 158 | 0.0 | 0.0 | 0.00 | 0.00 | 0.00 | 69 | 1021.2 |
| 20260509063655 | 73 | 158 | 0.0 | 0.9 | 0.00 | 0.00 | 0.00 | 69 | 1021.2 |
| 20260509063152 | 73 | 158 | 0.0 | 0.0 | 0.00 | 0.00 | 0.00 | 70 | 1021.1 |
| 20260509062649 | 73 | 158 | 0.0 | 0.0 | 0.00 | 0.00 | 0.00 | 70 | 1021.0 |
| 20260509062146 | 72 | 158 | 0.0 | 0.9 | 0.00 | 0.00 | 0.00 | 71 | 1021.2 |
| 20260509061643 | 72 | 158 | 0.0 | 0.0 | 0.00 | 0.00 | 0.00 | 71 | 1021.1 |
| 20260509061140 | 73 | 158 | 0.0 | 0.0 | 0.00 | 0.00 | 0.00 | 71 | 1021.2 |
| 20260509060638 | 72 | 158 | 0.0 | 0.0 | 0.00 | 0.00 | 0.00 | 71 | 1021.0 |
| 20260509060134 | 72 | 158 | 0.0 | 0.0 | 0.00 | 0.00 | 0.00 | 71 | 1021.3 |
| 20260509055630 | 72 | 158 | 0.9 | 0.9 | 0.00 | 0.00 | 0.00 | 71 | 1021.2 |
| 20260509055125 | 72 | 158 | 0.0 | 0.0 | 0.00 | 0.00 | 0.00 | 71 | 1021.1 |
| 20260509054622 | 72 | 158 | 0.0 | 1.7 | 0.00 | 0.00 | 0.00 | 71 | 1021.2 |
| 20260509054120 | 72 | 158 | 0.0 | 1.7 | 0.00 | 0.00 | 0.00 | 71 | 1021.2 |
| 20260509053618 | 72 | 158 | 0.0 | 0.0 | 0.00 | 0.00 | 0.00 | 72 | 1021.1 |
| 20260509053115 | 72 | 158 | 0.0 | 0.0 | 0.00 | 0.00 | 0.00 | 71 | 1021.2 |
| 20260509052613 | 72 | 159 | 0.9 | 0.9 | 0.00 | 0.00 | 0.00 | 71 | 1021.3 |
| 20260509052111 | 72 | 159 | 0.0 | 0.9 | 0.00 | 0.00 | 0.00 | 72 | 1021.2 |
| 20260509051608 | 72 | 159 | 0.0 | 0.0 | 0.00 | 0.00 | 0.00 | 72 | 1021.2 |
| 20260509051105 | 72 | 159 | 0.0 | 0.0 | 0.00 | 0.00 | 0.00 | 73 | 1021.2 |
| 20260509050602 | 72 | 159 | 0.0 | 0.0 | 0.00 | 0.00 | 0.00 | 73 | 1021.4 |
| 20260509050058 | 72 | 159 | 0.0 | 0.9 | 0.00 | 0.00 | 0.00 | 73 | 1021.4 |
| 20260509045556 | 72 | 159 | 0.0 | 0.0 | 0.00 | 0.00 | 0.00 | 73 | 1021.5 |
| 20260509045047 | 72 | 159 | 0.0 | 0.0 | 0.00 | 0.00 | 0.00 | 73 | 1021.3 |
| 20260509044544 | 72 | 159 | 0.0 | 0.0 | 0.00 | 0.00 | 0.00 | 73 | 1021.5 |
| 20260509044042 | 72 | 159 | 0.0 | 0.0 | 0.00 | 0.00 | 0.00 | 73 | 1021.4 |
| 20260509043538 | 72 | 159 | 0.0 | 0.0 | 0.00 | 0.00 | 0.00 | 73 | 1021.4 |
| 20260509043034 | 72 | 159 | 0.0 | 0.0 | 0.00 | 0.00 | 0.00 | 73 | 1021.4 |
| 20260509042530 | 72 | 159 | 0.0 | 0.0 | 0.00 | 0.00 | 0.00 | 73 | 1021.4 |
| 20260509042026 | 72 | 159 | 0.0 | 0.0 | 0.00 | 0.00 | 0.00 | 73 | 1021.5 |
| 20260509041523 | 72 | 159 | 0.0 | 0.0 | 0.00 | 0.00 | 0.00 | 73 | 1021.3 |
| 20260509041021 | 71 | 159 | 0.0 | 0.0 | 0.00 | 0.00 | 0.00 | 74 | 1021.6 |
| 20260509040519 | 71 | 159 | 0.0 | 0.0 | 0.00 | 0.00 | 0.00 | 74 | 1021.4 |
| 20260509040016 | 71 | 159 | 0.0 | 0.0 | 0.00 | 0.00 | 0.00 | 74 | 1021.6 |
| 20260509035513 | 71 | 159 | 0.0 | 0.0 | 0.00 | 0.00 | 0.00 | 74 | 1021.5 |
| 20260509035009 | 71 | 159 | 0.0 | 0.0 | 0.00 | 0.00 | 0.00 | 75 | 1021.4 |
| 20260509034508 | 71 | 159 | 0.0 | 0.0 | 0.00 | 0.00 | 0.00 | 75 | 1021.3 |
| 20260509034004 | 71 | 159 | 0.0 | 0.0 | 0.00 | 0.00 | 0.00 | 75 | 1021.2 |
| 20260509033500 | 71 | 159 | 0.0 | 0.0 | 0.00 | 0.00 | 0.00 | 76 | 1021.5 |
| 20260509032957 | 71 | 160 | 0.0 | 0.0 | 0.00 | 0.00 | 0.00 | 75 | 1021.2 |
| 20260509032454 | 71 | 160 | 0.0 | 0.0 | 0.00 | 0.00 | 0.00 | 75 | 1021.3 |
| 20260509031952 | 71 | 160 | 0.0 | 0.0 | 0.00 | 0.00 | 0.00 | 75 | 1021.5 |
| 20260509031449 | 71 | 160 | 0.0 | 0.0 | 0.00 | 0.00 | 0.00 | 75 | 1021.3 |
| 20260509030946 | 71 | 160 | 0.0 | 0.0 | 0.00 | 0.00 | 0.00 | 75 | 1021.3 |
| 20260509030444 | 71 | 160 | 0.0 | 0.0 | 0.00 | 0.00 | 0.00 | 75 | 1021.3 |
| 20260509025941 | 71 | 160 | 0.0 | 0.0 | 0.00 | 0.00 | 0.00 | 74 | 1021.3 |
| 20260509025437 | 72 | 160 | 0.0 | 0.0 | 0.00 | 0.00 | 0.00 | 73 | 1021.5 |
| 20260509024932 | 72 | 160 | 0.0 | 0.0 | 0.00 | 0.00 | 0.00 | 73 | 1021.3 |
| 20260509024428 | 72 | 160 | 0.0 | 0.0 | 0.00 | 0.00 | 0.00 | 72 | 1021.4 |
| 20260509023925 | 73 | 160 | 0.0 | 0.9 | 0.00 | 0.00 | 0.00 | 72 | 1021.4 |
| 20260509023423 | 73 | 160 | 0.0 | 0.9 | 0.00 | 0.00 | 0.00 | 72 | 1021.4 |
| 20260509022919 | 73 | 160 | 0.0 | 0.0 | 0.00 | 0.00 | 0.00 | 72 | 1021.5 |
| 20260509022416 | 73 | 160 | 0.0 | 0.0 | 0.00 | 0.00 | 0.00 | 71 | 1021.5 |
| 20260509021914 | 73 | 160 | 0.0 | 0.0 | 0.00 | 0.00 | 0.00 | 71 | 1021.5 |
| 20260509021410 | 73 | 160 | 0.0 | 1.7 | 0.00 | 0.00 | 0.00 | 71 | 1021.4 |
| 20260509020908 | 73 | 160 | 0.9 | 4.3 | 0.00 | 0.00 | 0.00 | 71 | 1021.6 |
| 20260509020406 | 73 | 160 | 0.0 | 0.0 | 0.00 | 0.00 | 0.00 | 72 | 1021.5 |
| 20260509015903 | 73 | 160 | 0.0 | 0.0 | 0.00 | 0.00 | 0.00 | 72 | 1021.4 |
| 20260509015401 | 72 | 160 | 0.0 | 0.0 | 0.00 | 0.00 | 0.00 | 73 | 1021.5 |
| 20260509014857 | 72 | 160 | 0.0 | 0.0 | 0.00 | 0.00 | 0.00 | 73 | 1021.4 |
| 20260509014354 | 73 | 160 | 0.0 | 0.0 | 0.00 | 0.00 | 0.00 | 73 | 1021.3 |
| 20260509013851 | 73 | 160 | 0.0 | 0.0 | 0.00 | 0.00 | 0.00 | 73 | 1021.5 |
| 20260509013347 | 73 | 160 | 0.0 | 0.0 | 0.00 | 0.00 | 0.00 | 73 | 1021.4 |
| 20260509012843 | 73 | 160 | 0.0 | 0.9 | 0.00 | 0.00 | 0.00 | 73 | 1021.4 |
| 20260509012340 | 72 | 160 | 0.0 | 0.0 | 0.00 | 0.00 | 0.00 | 74 | 1021.3 |
| 20260509011838 | 72 | 160 | 0.0 | 0.0 | 0.00 | 0.00 | 0.00 | 74 | 1021.3 |
| 20260509011335 | 72 | 160 | 0.0 | 0.0 | 0.00 | 0.00 | 0.00 | 74 | 1021.5 |
| 20260509010833 | 73 | 161 | 0.0 | 0.0 | 0.00 | 0.00 | 0.00 | 73 | 1021.5 |
| 20260509010330 | 73 | 169 | 0.0 | 0.0 | 0.00 | 0.00 | 0.00 | 73 | 1021.6 |
| 20260509005821 | 73 | 182 | 0.0 | 0.0 | 0.00 | 0.00 | 0.00 | 72 | 1021.4 |
| 20260509005320 | 74 | 191 | 0.0 | 0.0 | 0.00 | 0.00 | 0.00 | 71 | 1021.6 |
| 20260509004819 | 74 | 199 | 0.0 | 0.0 | 0.00 | 0.00 | 0.00 | 71 | 1021.8 |
| 20260509004315 | 74 | 210 | 0.0 | 0.0 | 0.00 | 0.00 | 0.00 | 71 | 1021.5 |
| 20260509003814 | 74 | 215 | 0.0 | 0.9 | 0.00 | 0.00 | 0.00 | 70 | 1021.4 |
| 20260509003311 | 75 | 219 | 0.0 | 1.7 | 0.00 | 0.00 | 0.00 | 70 | 1021.5 |
| 20260509002803 | 75 | 226 | 0.0 | 0.0 | 0.00 | 0.00 | 0.00 | 69 | 1021.4 |
| 20260509002300 | 75 | 226 | 0.0 | 0.9 | 0.00 | 0.00 | 0.00 | 69 | 1021.4 |
| 20260509001758 | 75 | 228 | 0.0 | 0.0 | 0.00 | 0.00 | 0.00 | 68 | 1021.4 |
| 20260509001248 | 75 | 232 | 0.0 | 0.0 | 0.00 | 0.00 | 0.00 | 68 | 1021.3 |
| 20260509000746 | 75 | 233 | 0.0 | 0.0 | 0.00 | 0.00 | 0.00 | 67 | 1021.4 |
| 20260509000243 | 75 | 234 | 0.0 | 0.0 | 0.00 | 0.00 | 0.00 | 66 | 1021.4 |
| 20260508235739 | 76 | 235 | 0.0 | 0.0 | 0.00 | 0.00 | 0.00 | 66 | 1021.3 |
| 20260508235236 | 76 | 235 | 0.0 | 0.9 | 0.00 | 0.00 | 0.00 | 66 | 1021.1 |
| 20260508234734 | 76 | 231 | 0.0 | 0.9 | 0.00 | 0.00 | 0.00 | 65 | 1021.2 |
| 20260508234229 | 77 | 235 | 0.9 | 0.9 | 0.00 | 0.00 | 0.00 | 65 | 1021.1 |
| 20260508233729 | 77 | 231 | 0.0 | 0.0 | 0.00 | 0.00 | 0.00 | 65 | 1021.2 |
| 20260508233227 | 77 | 237 | 0.9 | 0.9 | 0.00 | 0.00 | 0.00 | 65 | 1021.2 |
| 20260508232724 | 77 | 230 | 0.0 | 0.9 | 0.00 | 0.00 | 0.00 | 65 | 1021.4 |
| 20260508232221 | 77 | 233 | 0.0 | 0.0 | 0.00 | 0.00 | 0.00 | 65 | 1021.3 |
| 20260508231719 | 77 | 234 | 0.0 | 0.0 | 0.00 | 0.00 | 0.00 | 66 | 1021.5 |
| 20260508231215 | 76 | 234 | 0.0 | 0.0 | 0.00 | 0.00 | 0.00 | 66 | 1021.3 |
| 20260508230712 | 76 | 234 | 0.0 | 0.0 | 0.00 | 0.00 | 0.00 | 67 | 1021.2 |
| 20260508230208 | 75 | 233 | 0.0 | 0.0 | 0.00 | 0.00 | 0.00 | 69 | 1021.2 |
| 20260508225706 | 75 | 233 | 0.0 | 0.0 | 0.00 | 0.00 | 0.00 | 72 | 1021.2 |
| 20260508225202 | 75 | 233 | 0.0 | 0.0 | 0.00 | 0.00 | 0.00 | 72 | 1021.4 |
| 20260508224700 | 75 | 234 | 0.0 | 0.0 | 0.00 | 0.00 | 0.00 | 72 | 1021.4 |
| 20260508224157 | 75 | 234 | 0.0 | 0.0 | 0.00 | 0.00 | 0.00 | 71 | 1021.2 |
| 20260508223655 | 75 | 234 | 0.0 | 0.0 | 0.00 | 0.00 | 0.00 | 71 | 1021.4 |
| 20260508223152 | 75 | 234 | 0.0 | 0.0 | 0.00 | 0.00 | 0.00 | 70 | 1021.1 |
| 20260508222649 | 76 | 234 | 0.0 | 0.0 | 0.00 | 0.00 | 0.00 | 69 | 1021.1 |
| 20260508222147 | 76 | 234 | 0.0 | 0.0 | 0.00 | 0.00 | 0.00 | 70 | 1021.2 |
| 20260508221643 | 76 | 235 | 0.0 | 0.0 | 0.00 | 0.00 | 0.00 | 70 | 1021.3 |
| 20260508221138 | 76 | 235 | 0.0 | 0.0 | 0.00 | 0.00 | 0.00 | 70 | 1021.1 |
| 20260508220636 | 76 | 235 | 0.0 | 0.0 | 0.00 | 0.00 | 0.00 | 69 | 1021.2 |
| 20260508220132 | 77 | 236 | 0.0 | 0.0 | 0.00 | 0.00 | 0.00 | 69 | 1021.3 |
| 20260508215628 | 77 | 236 | 0.0 | 0.0 | 0.00 | 0.00 | 0.00 | 67 | 1021.2 |
| 20260508215125 | 77 | 236 | 0.0 | 0.0 | 0.00 | 0.00 | 0.00 | 66 | 1021.1 |
| 20260508214622 | 77 | 236 | 0.0 | 0.0 | 0.00 | 0.00 | 0.00 | 65 | 1021.1 |
| 20260508214119 | 77 | 237 | 0.0 | 0.0 | 0.00 | 0.00 | 0.00 | 65 | 1021.0 |
| 20260508213616 | 78 | 237 | 0.0 | 0.0 | 0.00 | 0.00 | 0.00 | 64 | 1021.0 |
| 20260508213112 | 78 | 237 | 0.0 | 0.0 | 0.00 | 0.00 | 0.00 | 64 | 1020.9 |
| 20260508212609 | 78 | 238 | 0.0 | 0.0 | 0.00 | 0.00 | 0.00 | 63 | 1020.9 |
| 20260508212105 | 78 | 238 | 0.0 | 0.0 | 0.00 | 0.00 | 0.00 | 63 | 1021.0 |
| 20260508211601 | 78 | 239 | 0.0 | 0.0 | 0.00 | 0.00 | 0.00 | 63 | 1020.8 |
| 20260508211057 | 78 | 240 | 0.0 | 0.0 | 0.00 | 0.00 | 0.00 | 62 | 1020.7 |
| 20260508210554 | 78 | 238 | 0.0 | 0.0 | 0.00 | 0.00 | 0.00 | 62 | 1020.8 |
| 20260508210051 | 78 | 237 | 0.0 | 0.0 | 0.00 | 0.00 | 0.00 | 63 | 1020.5 |
| 20260508205548 | 79 | 240 | 0.0 | 0.0 | 0.00 | 0.00 | 0.00 | 62 | 1020.4 |
| 20260508205039 | 79 | 240 | 0.0 | 0.0 | 0.00 | 0.00 | 0.00 | 62 | 1020.5 |
| 20260508204536 | 79 | 240 | 0.0 | 0.0 | 0.00 | 0.00 | 0.00 | 61 | 1020.7 |
| 20260508204031 | 80 | 240 | 0.0 | 0.0 | 0.00 | 0.00 | 0.00 | 60 | 1020.7 |
| 20260508203528 | 80 | 240 | 0.0 | 0.0 | 0.00 | 0.00 | 0.00 | 60 | 1020.5 |
| 20260508203024 | 80 | 243 | 0.0 | 0.9 | 0.00 | 0.00 | 0.00 | 59 | 1020.4 |
| 20260508202521 | 79 | 241 | 0.0 | 0.0 | 0.00 | 0.00 | 0.00 | 61 | 1020.4 |